createdAt,value
2019-04-07T00:01:55.957Z,6.40
2019-04-07T00:04:27.225Z,6.40
2019-04-07T00:06:59.841Z,6.40
2019-04-07T00:09:28.780Z,6.40
2019-04-07T00:11:57.686Z,6.30
2019-04-07T00:14:27.208Z,6.30
2019-04-07T00:16:58.666Z,6.40
2019-04-07T00:19:27.604Z,6.30
2019-04-07T00:21:59.386Z,6.30
2019-04-07T00:24:28.337Z,6.30
2019-04-07T00:27:00.242Z,6.20
2019-04-07T00:29:29.137Z,6.10
2019-04-07T00:32:00.863Z,6.10
2019-04-07T00:34:32.436Z,6.00
2019-04-07T00:37:01.395Z,6.00
2019-04-07T00:39:32.276Z,6.10
2019-04-07T00:42:01.804Z,6.10
2019-04-07T00:44:34.357Z,6.00
2019-04-07T00:47:04.094Z,6.00
2019-04-07T00:49:33.138Z,5.80
2019-04-07T00:52:03.882Z,5.80
2019-04-07T00:54:32.889Z,5.70
2019-04-07T00:57:01.960Z,5.70
2019-04-07T00:59:33.890Z,5.60
2019-04-07T01:02:02.835Z,5.70
2019-04-07T01:04:31.904Z,5.80
2019-04-07T01:07:02.857Z,5.90
2019-04-07T01:09:34.444Z,5.90
2019-04-07T01:12:04.021Z,5.80
2019-04-07T01:14:33.590Z,5.90
2019-04-07T01:17:06.127Z,5.90
2019-04-07T01:19:35.368Z,5.90
2019-04-07T01:22:05.462Z,5.80
2019-04-07T01:24:34.459Z,5.80
2019-04-07T01:27:03.907Z,5.80
2019-04-07T01:29:33.231Z,5.80
2019-04-07T01:32:02.248Z,5.80
2019-04-07T01:34:31.545Z,5.80
2019-04-07T01:37:02.049Z,5.70
2019-04-07T01:39:34.752Z,5.70
2019-04-07T01:42:24.341Z,5.70
2019-04-07T01:45:11.581Z,5.70
2019-04-07T01:47:58.538Z,5.70
2019-04-07T01:50:45.960Z,5.80
2019-04-07T01:53:33.579Z,5.80
2019-04-07T01:56:12.919Z,5.70
2019-04-07T01:58:56.114Z,5.80
2019-04-07T02:01:27.356Z,5.60
2019-04-07T02:04:04.090Z,5.50
2019-04-07T02:06:37.399Z,5.40
2019-04-07T02:09:12.732Z,5.30
2019-04-07T02:11:46.262Z,5.10
2019-04-07T02:14:16.890Z,5.10
2019-04-07T02:17:02.620Z,5.00
2019-04-07T02:19:33.685Z,5.00
2019-04-07T02:22:13.825Z,5.10
2019-04-07T02:24:57.595Z,5.10
2019-04-07T02:27:28.419Z,5.10
2019-04-07T02:29:59.069Z,5.10
2019-04-07T02:32:46.224Z,5.20
2019-04-07T02:35:20.776Z,5.30
2019-04-07T02:37:52.702Z,5.40
2019-04-07T02:40:42.641Z,5.40
2019-04-07T02:43:30.913Z,5.40
2019-04-07T02:46:04.259Z,5.50
2019-04-07T02:48:50.990Z,5.50
2019-04-07T02:51:33.887Z,5.50
2019-04-07T02:54:07.763Z,5.50
2019-04-07T02:56:47.420Z,5.50
2019-04-07T02:59:20.580Z,5.30
2019-04-07T03:01:52.011Z,5.30
2019-04-07T03:04:44.432Z,5.30
2019-04-07T03:07:24.980Z,5.20
2019-04-07T03:10:12.979Z,5.00
2019-04-07T03:13:01.585Z,5.00
2019-04-07T03:15:41.675Z,5.10
2019-04-07T03:18:15.121Z,5.20
2019-04-07T03:20:45.634Z,5.10
2019-04-07T03:23:32.288Z,5.00
2019-04-07T03:26:15.204Z,5.00
2019-04-07T03:28:55.666Z,5.10
2019-04-07T03:31:29.700Z,5.00
2019-04-07T03:34:06.135Z,5.00
2019-04-07T03:37:09.625Z,5.20
2019-04-07T03:39:19.094Z,5.30
2019-04-07T03:42:01.483Z,5.30
2019-04-07T03:44:37.251Z,5.30
2019-04-07T03:47:14.394Z,5.20
2019-04-07T03:49:45.675Z,5.20
2019-04-07T03:52:26.695Z,5.20
2019-04-07T03:54:59.882Z,5.20
2019-04-07T03:57:36.277Z,5.10
2019-04-07T04:00:10.702Z,5.00
2019-04-07T04:02:46.890Z,4.90
2019-04-07T04:05:17.363Z,5.10
2019-04-07T04:07:47.885Z,5.10
2019-04-07T04:10:27.430Z,5.30
2019-04-07T04:12:58.650Z,5.20
2019-04-07T04:15:31.262Z,5.30
2019-04-07T04:18:03.355Z,5.20
2019-04-07T04:20:35.423Z,5.00
2019-04-07T04:23:04.727Z,5.00
2019-04-07T04:25:34.099Z,5.00
2019-04-07T04:28:03.169Z,5.00
2019-04-07T04:30:32.101Z,5.20
2019-04-07T04:33:04.099Z,5.20
2019-04-07T04:35:33.059Z,5.40
2019-04-07T04:38:05.914Z,5.40
2019-04-07T04:40:37.552Z,5.40
2019-04-07T04:43:06.778Z,5.60
2019-04-07T04:45:36.321Z,5.70
2019-04-07T04:48:06.554Z,5.70
2019-04-07T04:50:35.741Z,5.70
2019-04-07T04:53:04.620Z,5.70
2019-04-07T04:55:33.801Z,5.70
2019-04-07T04:58:02.885Z,5.70
2019-04-07T05:00:32.162Z,5.70
2019-04-07T05:03:02.742Z,5.80
2019-04-07T05:05:34.654Z,5.80
2019-04-07T05:08:05.323Z,5.80
2019-04-07T05:10:34.783Z,5.80
2019-04-07T05:13:04.533Z,5.80
2019-04-07T05:15:34.216Z,5.90
2019-04-07T05:18:06.434Z,6.00
2019-04-07T05:20:35.581Z,6.00
2019-04-07T05:23:05.187Z,6.00
2019-04-07T05:25:34.911Z,6.10
2019-04-07T05:28:04.628Z,6.10
2019-04-07T05:30:33.764Z,6.20
2019-04-07T05:33:05.651Z,6.30
2019-04-07T05:35:35.081Z,6.30
2019-04-07T05:38:06.599Z,6.30
2019-04-07T05:40:34.666Z,6.40
2019-04-07T05:43:07.124Z,6.40
2019-04-07T05:45:37.478Z,6.50
2019-04-07T05:48:06.585Z,6.60
2019-04-07T05:50:36.033Z,6.70
2019-04-07T05:53:06.820Z,6.70
2019-04-07T05:55:35.817Z,6.80
2019-04-07T05:58:07.234Z,6.90
2019-04-07T06:00:35.336Z,7.00
2019-04-07T06:03:06.651Z,7.00
2019-04-07T06:05:35.657Z,7.10
2019-04-07T06:08:21.277Z,7.10
2019-04-07T06:10:35.766Z,7.20
2019-04-07T06:13:05.344Z,7.20
2019-04-07T06:15:35.677Z,7.30
2019-04-07T06:18:05.132Z,7.30
2019-04-07T06:20:34.385Z,7.40
2019-04-07T06:23:04.922Z,7.50
2019-04-07T06:25:38.125Z,7.50
2019-04-07T06:28:05.408Z,7.60
2019-04-07T06:30:36.238Z,7.70
2019-04-07T06:33:07.287Z,7.70
2019-04-07T06:35:36.536Z,7.80
2019-04-07T06:38:11.125Z,7.80
2019-04-07T06:40:40.466Z,7.90
2019-04-07T06:43:09.540Z,7.90
2019-04-07T06:45:40.037Z,7.90
2019-04-07T06:48:11.340Z,8.00
2019-04-07T06:50:54.795Z,8.10
2019-04-07T06:53:23.532Z,8.20
2019-04-07T06:55:58.444Z,8.30
2019-04-07T06:58:26.625Z,8.30
2019-04-07T07:00:58.327Z,8.40
2019-04-07T07:03:49.694Z,8.40
2019-04-07T07:06:20.275Z,8.50
2019-04-07T07:08:54.198Z,8.60
2019-04-07T07:11:31.207Z,8.60
2019-04-07T07:14:06.404Z,8.70
2019-04-07T07:16:55.318Z,8.90
2019-04-07T07:19:32.832Z,9.00
2019-04-07T07:22:16.602Z,9.10
2019-04-07T07:24:47.287Z,9.20
2019-04-07T07:27:16.517Z,9.30
2019-04-07T07:29:47.289Z,9.40
2019-04-07T07:32:16.036Z,9.40
2019-04-07T07:34:44.979Z,9.50
2019-04-07T07:37:13.873Z,9.60
2019-04-07T07:39:45.097Z,9.50
2019-04-07T07:42:13.765Z,9.50
2019-04-07T07:44:42.856Z,9.40
2019-04-07T07:47:11.972Z,9.40
2019-04-07T07:49:41.492Z,9.40
2019-04-07T07:52:11.609Z,9.50
2019-04-07T07:54:41.066Z,9.50
2019-04-07T07:57:10.034Z,9.40
2019-04-07T07:59:40.188Z,9.50
2019-04-07T08:02:09.807Z,9.40
2019-04-07T08:04:38.817Z,9.30
2019-04-07T08:07:10.819Z,9.30
2019-04-07T08:09:38.295Z,9.30
2019-04-07T08:12:07.300Z,9.50
2019-04-07T08:14:37.068Z,9.60
2019-04-07T08:17:06.138Z,9.40
2019-04-07T08:19:40.815Z,9.80
2019-04-07T08:22:08.744Z,9.90
2019-04-07T08:24:37.790Z,9.90
2019-04-07T08:27:07.314Z,10.00
2019-04-07T08:29:37.562Z,10.00
2019-04-07T08:32:07.642Z,9.90
2019-04-07T08:34:37.227Z,10.00
2019-04-07T08:37:06.261Z,10.10
2019-04-07T08:39:37.484Z,10.10
2019-04-07T08:42:11.023Z,10.10
2019-04-07T08:44:38.650Z,10.10
2019-04-07T08:47:10.737Z,10.20
2019-04-07T08:49:38.151Z,10.20
2019-04-07T08:52:09.787Z,10.30
2019-04-07T08:54:37.641Z,10.50
2019-04-07T08:57:07.098Z,10.50
2019-04-07T08:59:39.904Z,10.60
2019-04-07T09:02:07.585Z,10.80
2019-04-07T09:04:36.716Z,10.80
2019-04-07T09:07:05.670Z,10.90
2019-04-07T09:09:40.378Z,11.00
2019-04-07T09:12:08.166Z,11.10
2019-04-07T09:14:39.456Z,11.20
2019-04-07T09:17:30.725Z,11.20
2019-04-07T09:20:10.682Z,11.30
2019-04-07T09:22:57.244Z,11.50
2019-04-07T09:25:32.042Z,11.60
2019-04-07T09:28:23.987Z,11.50
2019-04-07T09:30:57.437Z,11.50
2019-04-07T09:33:33.697Z,11.60
2019-04-07T09:36:12.422Z,11.70
2019-04-07T09:39:01.852Z,11.60
2019-04-07T09:41:44.054Z,11.70
2019-04-07T09:44:27.828Z,11.70
2019-04-07T09:47:16.358Z,11.90
2019-04-07T09:49:56.166Z,12.00
2019-04-07T09:52:30.508Z,12.00
2019-04-07T09:55:09.167Z,12.10
2019-04-07T09:57:40.863Z,12.10
2019-04-07T10:00:22.890Z,12.20
2019-04-07T10:02:53.023Z,12.30
2019-04-07T10:05:26.229Z,12.50
2019-04-07T10:08:13.889Z,12.50
2019-04-07T10:10:57.244Z,12.50
2019-04-07T10:13:45.252Z,12.70
2019-04-07T10:16:36.416Z,12.80
2019-04-07T10:19:15.746Z,12.90
2019-04-07T10:22:03.227Z,12.90
2019-04-07T10:24:52.229Z,13.10
2019-04-07T10:27:33.034Z,13.20
2019-04-07T10:30:06.782Z,13.30
2019-04-07T10:32:47.690Z,13.50
2019-04-07T10:35:33.520Z,13.50
2019-04-07T10:38:22.209Z,13.60
2019-04-07T10:41:10.898Z,13.90
2019-04-07T10:43:57.835Z,13.90
2019-04-07T10:46:29.133Z,14.00
2019-04-07T10:49:00.344Z,13.80
2019-04-07T10:51:31.965Z,13.90
2019-04-07T10:54:15.662Z,13.90
2019-04-07T10:56:46.354Z,13.90
2019-04-07T10:59:17.477Z,13.90
2019-04-07T11:02:07.033Z,14.10
2019-04-07T11:04:37.733Z,14.10
2019-04-07T11:07:11.507Z,14.00
2019-04-07T11:09:42.628Z,13.90
2019-04-07T11:12:30.426Z,13.90
2019-04-07T11:15:15.740Z,13.80
2019-04-07T11:18:03.086Z,13.80
2019-04-07T11:20:33.830Z,13.80
2019-04-07T11:23:13.600Z,13.80
2019-04-07T11:26:00.844Z,13.80
2019-04-07T11:28:31.828Z,14.10
2019-04-07T11:31:02.426Z,14.20
2019-04-07T11:33:36.199Z,14.20
2019-04-07T11:36:10.639Z,14.30
2019-04-07T11:38:44.194Z,14.50
2019-04-07T11:41:14.750Z,14.50
2019-04-07T11:44:01.913Z,14.50
2019-04-07T11:46:33.004Z,14.60
2019-04-07T11:49:13.462Z,14.70
2019-04-07T11:51:44.353Z,14.80
2019-04-07T11:54:33.927Z,14.90
2019-04-07T11:57:06.958Z,15.00
2019-04-07T11:59:37.796Z,15.00
2019-04-07T12:02:08.993Z,15.00
2019-04-07T12:04:40.397Z,15.00
2019-04-07T12:07:14.489Z,15.00
2019-04-07T12:09:54.247Z,15.10
2019-04-07T12:12:42.004Z,15.10
2019-04-07T12:15:30.212Z,15.00
2019-04-07T12:18:04.370Z,14.90
2019-04-07T12:20:45.120Z,14.90
2019-04-07T12:23:23.331Z,15.00
2019-04-07T12:25:52.827Z,14.90
2019-04-07T12:28:26.709Z,14.90
2019-04-07T12:31:00.102Z,14.90
2019-04-07T12:33:38.539Z,15.10
2019-04-07T12:36:11.826Z,14.90
2019-04-07T12:39:00.442Z,14.80
2019-04-07T12:41:47.631Z,14.90
2019-04-07T12:44:21.866Z,15.10
2019-04-07T12:47:09.172Z,15.20
2019-04-07T12:49:46.113Z,15.10
2019-04-07T12:52:34.190Z,15.00
2019-04-07T12:55:20.931Z,14.70
2019-04-07T12:57:58.217Z,14.50
2019-04-07T13:00:55.703Z,14.60
2019-04-07T13:03:28.888Z,14.50
2019-04-07T13:06:06.257Z,14.50
2019-04-07T13:08:34.919Z,14.60
2019-04-07T13:11:10.633Z,14.70
2019-04-07T13:13:49.471Z,14.80
2019-04-07T13:16:25.336Z,14.90
2019-04-07T13:19:02.251Z,15.10
2019-04-07T13:21:34.048Z,15.30
2019-04-07T13:24:11.628Z,15.60
2019-04-07T13:26:52.119Z,15.80
2019-04-07T13:29:32.379Z,15.90
2019-04-07T13:32:20.652Z,15.80
2019-04-07T13:35:01.257Z,15.80
2019-04-07T13:37:33.632Z,15.90
2019-04-07T13:40:05.019Z,16.10
2019-04-07T13:42:48.094Z,15.70
2019-04-07T13:45:28.980Z,15.90
2019-04-07T13:48:03.475Z,15.70
2019-04-07T13:50:37.114Z,15.60
2019-04-07T13:53:07.721Z,15.70
2019-04-07T13:55:58.263Z,15.70
2019-04-07T13:58:35.331Z,15.80
2019-04-07T14:01:07.396Z,15.90
2019-04-07T14:03:44.446Z,16.10
2019-04-07T14:06:16.186Z,16.00
2019-04-07T14:08:56.985Z,15.80
2019-04-07T14:11:31.803Z,15.90
2019-04-07T14:14:18.989Z,16.00
2019-04-07T14:17:06.275Z,16.00
2019-04-07T14:19:37.361Z,16.20
2019-04-07T14:22:17.631Z,16.20
2019-04-07T14:25:04.426Z,16.30
2019-04-07T14:27:40.557Z,16.30
2019-04-07T14:30:28.029Z,16.40
2019-04-07T14:33:02.164Z,16.40
2019-04-07T14:35:42.147Z,16.30
2019-04-07T14:38:13.592Z,16.30
2019-04-07T14:40:53.076Z,16.20
2019-04-07T14:43:35.130Z,16.20
2019-04-07T14:46:04.457Z,16.30
2019-04-07T14:48:47.964Z,16.30
2019-04-07T14:51:19.560Z,16.20
2019-04-07T14:53:54.080Z,16.20
2019-04-07T14:56:34.170Z,16.20
2019-04-07T14:59:21.930Z,16.30
2019-04-07T15:02:00.474Z,16.20
2019-04-07T15:04:30.261Z,16.30
2019-04-07T15:07:10.063Z,16.40
2019-04-07T15:09:41.374Z,16.30
2019-04-07T15:12:18.532Z,16.20
2019-04-07T15:14:42.725Z,16.10
2019-04-07T15:17:12.054Z,16.10
2019-04-07T15:19:41.155Z,16.20
2019-04-07T15:22:10.081Z,16.30
2019-04-07T15:24:39.579Z,16.20
2019-04-07T15:27:08.648Z,16.20
2019-04-07T15:29:41.375Z,15.90
2019-04-07T15:32:08.144Z,15.80
2019-04-07T15:34:39.556Z,15.70
2019-04-07T15:37:07.872Z,15.70
2019-04-07T15:39:37.457Z,15.70
2019-04-07T15:42:09.328Z,15.60
2019-04-07T15:44:39.645Z,15.50
2019-04-07T15:47:09.270Z,15.60
2019-04-07T15:49:38.785Z,15.50
2019-04-07T15:52:10.043Z,15.50
2019-04-07T15:54:39.135Z,15.50
2019-04-07T15:57:08.919Z,15.50
2019-04-07T15:59:39.686Z,15.30
2019-04-07T16:02:11.214Z,15.40
2019-04-07T16:04:40.731Z,15.30
2019-04-07T16:07:10.292Z,15.30
2019-04-07T16:09:49.419Z,15.30
2019-04-07T16:12:10.036Z,15.30
2019-04-07T16:14:40.272Z,15.40
2019-04-07T16:17:10.774Z,15.40
2019-04-07T16:19:43.092Z,15.30
2019-04-07T16:22:12.588Z,15.30
2019-04-07T16:24:41.648Z,15.30
2019-04-07T16:27:10.982Z,15.50
2019-04-07T16:29:40.909Z,16.20
2019-04-07T16:32:11.304Z,17.10
2019-04-07T16:34:42.180Z,17.50
2019-04-07T16:37:11.642Z,17.80
2019-04-07T16:39:42.575Z,17.90
2019-04-07T16:42:14.099Z,18.50
2019-04-07T16:44:44.122Z,18.40
2019-04-07T16:47:20.892Z,17.50
2019-04-07T16:49:46.622Z,17.10
2019-04-07T16:52:14.217Z,16.70
2019-04-07T16:54:44.608Z,16.20
2019-04-07T16:57:13.884Z,15.80
2019-04-07T16:59:43.562Z,15.60
2019-04-07T17:02:14.472Z,15.40
2019-04-07T17:04:43.149Z,15.40
2019-04-07T17:07:15.327Z,15.10
2019-04-07T17:09:42.664Z,14.90
2019-04-07T17:12:12.440Z,14.70
2019-04-07T17:14:42.232Z,14.50
2019-04-07T17:17:11.198Z,14.30
2019-04-07T17:19:41.747Z,14.10
2019-04-07T17:22:13.242Z,14.00
2019-04-07T17:24:42.681Z,13.90
2019-04-07T17:27:11.877Z,13.80
2019-04-07T17:29:41.560Z,13.60
2019-04-07T17:32:10.945Z,13.60
2019-04-07T17:34:41.748Z,13.70
2019-04-07T17:37:10.735Z,13.80
2019-04-07T17:39:41.953Z,13.90
2019-04-07T17:42:12.757Z,14.10
2019-04-07T17:44:49.156Z,14.10
2019-04-07T17:47:17.945Z,13.90
2019-04-07T17:49:48.487Z,13.70
2019-04-07T17:52:27.887Z,13.50
2019-04-07T17:55:10.650Z,13.30
2019-04-07T17:57:54.731Z,13.00
2019-04-07T18:00:37.383Z,12.60
2019-04-07T18:03:11.621Z,12.30
2019-04-07T18:06:00.220Z,12.00
2019-04-07T18:08:34.294Z,11.80
2019-04-07T18:11:23.221Z,11.60
2019-04-07T18:13:58.642Z,11.50
2019-04-07T18:16:40.791Z,11.40
2019-04-07T18:19:20.817Z,11.30
2019-04-07T18:21:55.052Z,11.30
2019-04-07T18:24:34.046Z,11.20
2019-04-07T18:27:23.246Z,11.00
2019-04-07T18:29:59.664Z,10.90
2019-04-07T18:32:28.960Z,10.80
2019-04-07T18:35:11.571Z,10.90
2019-04-07T18:37:44.563Z,10.80
2019-04-07T18:40:18.072Z,10.90
2019-04-07T18:42:57.800Z,11.10
2019-04-07T18:45:37.327Z,11.20
2019-04-07T18:48:14.693Z,11.30
2019-04-07T18:51:01.628Z,11.20
2019-04-07T18:53:50.453Z,11.20
2019-04-07T18:56:23.638Z,11.10
2019-04-07T18:59:10.434Z,10.80
2019-04-07T19:01:57.831Z,10.50
2019-04-07T19:04:30.284Z,10.20
2019-04-07T19:07:09.818Z,9.90
2019-04-07T19:09:43.877Z,9.70
2019-04-07T19:12:23.232Z,9.60
2019-04-07T19:15:02.476Z,9.50
2019-04-07T19:17:32.643Z,9.30
2019-04-07T19:20:10.864Z,9.20
2019-04-07T19:22:41.531Z,9.20
2019-04-07T19:25:21.538Z,9.30
2019-04-07T19:27:54.130Z,9.30
2019-04-07T19:30:26.553Z,9.40
2019-04-07T19:33:12.569Z,9.50
2019-04-07T19:35:49.818Z,9.50
2019-04-07T19:38:32.499Z,9.50
2019-04-07T19:41:12.032Z,9.60
2019-04-07T19:43:44.448Z,9.60
2019-04-07T19:46:14.710Z,9.50
2019-04-07T19:48:49.044Z,9.40
2019-04-07T19:51:32.046Z,9.30
2019-04-07T19:54:14.510Z,9.20
2019-04-07T19:56:46.472Z,9.10
2019-04-07T19:59:39.335Z,9.00
2019-04-07T20:02:13.229Z,8.90
2019-04-07T20:04:52.452Z,9.00
2019-04-07T20:07:35.231Z,9.00
2019-04-07T20:10:08.647Z,8.90
2019-04-07T20:12:48.251Z,8.90
2019-04-07T20:15:29.682Z,8.90
2019-04-07T20:18:08.413Z,8.90
2019-04-07T20:20:50.643Z,8.80
2019-04-07T20:23:33.166Z,8.80
2019-04-07T20:26:11.767Z,8.90
2019-04-07T20:28:52.034Z,8.90
2019-04-07T20:31:23.887Z,8.90
2019-04-07T20:34:05.770Z,8.90
2019-04-07T20:36:35.967Z,8.90
2019-04-07T20:39:09.371Z,8.90
2019-04-07T20:41:58.814Z,8.80
2019-04-07T20:44:34.068Z,8.70
2019-04-07T20:47:10.322Z,8.60
2019-04-07T20:49:48.212Z,8.50
2019-04-07T20:52:22.293Z,8.40
2019-04-07T20:55:08.597Z,8.50
2019-04-07T20:58:10.300Z,8.40
2019-04-07T21:00:28.527Z,8.40
2019-04-07T21:03:19.380Z,8.30
2019-04-07T21:05:46.241Z,8.10
2019-04-07T21:08:35.647Z,8.10
2019-04-07T21:11:09.172Z,8.00
2019-04-07T21:13:56.668Z,8.00
2019-04-07T21:16:29.468Z,7.90
2019-04-07T21:19:05.527Z,7.80
2019-04-07T21:21:34.928Z,7.70
2019-04-07T21:24:18.230Z,7.60
2019-04-07T21:26:58.119Z,7.50
2019-04-07T21:29:38.597Z,7.50
2019-04-07T21:32:18.686Z,7.40
2019-04-07T21:34:56.194Z,7.40
2019-04-07T21:37:46.845Z,7.40
2019-04-07T21:40:19.794Z,7.50
2019-04-07T21:43:07.372Z,7.60
2019-04-07T21:45:43.674Z,7.60
2019-04-07T21:48:11.667Z,7.60
2019-04-07T21:50:48.319Z,7.50
2019-04-07T21:53:30.279Z,7.50
2019-04-07T21:56:14.162Z,7.40
2019-04-07T21:58:47.453Z,7.40
2019-04-07T22:01:21.205Z,7.40
2019-04-07T22:03:54.769Z,7.30
2019-04-07T22:06:26.549Z,7.40
2019-04-07T22:09:14.673Z,7.40
2019-04-07T22:11:44.564Z,7.30
2019-04-07T22:14:14.658Z,7.30
2019-04-07T22:16:47.097Z,7.30
2019-04-07T22:19:16.669Z,7.30
2019-04-07T22:21:46.460Z,7.20
2019-04-07T22:24:15.798Z,7.10
2019-04-07T22:26:49.211Z,7.10
2019-04-07T22:29:16.120Z,7.00
2019-04-07T22:31:47.789Z,7.00
2019-04-07T22:34:16.912Z,7.00
2019-04-07T22:36:47.894Z,7.10
2019-04-07T22:39:16.395Z,7.20
2019-04-07T22:41:46.174Z,7.20
2019-04-07T22:44:15.531Z,7.20
2019-04-07T22:46:48.071Z,7.20
2019-04-07T22:49:15.593Z,7.20
2019-04-07T22:51:47.064Z,7.20
2019-04-07T22:54:15.225Z,7.40
2019-04-07T22:56:46.823Z,7.40
2019-04-07T22:59:15.763Z,7.50
2019-04-07T23:01:44.661Z,7.50
2019-04-07T23:04:16.549Z,7.50
2019-04-07T23:06:45.454Z,7.60
2019-04-07T23:09:14.391Z,7.60
2019-04-07T23:11:44.757Z,7.60
2019-04-07T23:14:16.432Z,7.70
2019-04-07T23:16:45.326Z,7.60
2019-04-07T23:19:14.355Z,7.70
2019-04-07T23:21:43.359Z,7.70
2019-04-07T23:24:14.992Z,7.80
2019-04-07T23:26:44.644Z,7.80
2019-04-07T23:29:17.641Z,7.80
2019-04-07T23:31:47.203Z,7.80
2019-04-07T23:34:16.969Z,7.80
2019-04-07T23:36:46.084Z,7.80
2019-04-07T23:39:15.290Z,7.80
2019-04-07T23:41:47.068Z,7.80
2019-04-07T23:44:16.142Z,7.70
2019-04-07T23:46:45.313Z,7.70
2019-04-07T23:49:15.151Z,7.70
2019-04-07T23:51:44.151Z,7.80
2019-04-07T23:54:14.404Z,7.80
2019-04-07T23:56:44.901Z,7.80
2019-04-07T23:59:16.912Z,7.80
